Time;durP1;ratioP1;P1;durP2;ratioP2;P2;SDS_P1;SDS_P2;PMS_P1;PMS_P2;Temp;Humidity;BMP_temperature;BMP_pressure;BME280_temperature;BME280_humidity;BME280_pressure;Samples;Min_cycle;Max_cycle;Signal;HPM_P1;HPM_P2
2023/12/02 00:01:16;;;;;;;17.55;6.90;;;;;;;;;;5027193;28;20509;-60
2023/12/02 00:03:41;;;;;;;18.00;7.32;;;;;;;;;;5024978;28;20024;-60
2023/12/02 00:06:06;;;;;;;18.17;6.73;;;;;;;;;;5030085;28;20084;-60
2023/12/02 00:08:31;;;;;;;18.63;7.10;;;;;;;;;;5024798;28;20037;-59
2023/12/02 00:10:56;;;;;;;18.13;7.03;;;;;;;;;;5027555;28;20444;-60
2023/12/02 00:13:22;;;;;;;17.33;7.07;;;;;;;;;;5026989;28;20022;-60
2023/12/02 00:15:47;;;;;;;15.63;6.90;;;;;;;;;;5027961;28;20032;-60
2023/12/02 00:18:12;;;;;;;17.17;6.93;;;;;;;;;;5029909;28;20104;-60
2023/12/02 00:20:37;;;;;;;17.37;7.10;;;;;;;;;;5030290;28;20029;-59
2023/12/02 00:23:02;;;;;;;15.23;6.37;;;;;;;;;;5025907;28;20413;-59
2023/12/02 00:25:27;;;;;;;20.38;8.15;;;;;;;;;;5030518;28;20025;-60
2023/12/02 00:27:52;;;;;;;15.73;6.43;;;;;;;;;;5027427;28;20017;-61
2023/12/02 00:30:18;;;;;;;17.88;6.68;;;;;;;;;;5028917;28;20040;-61
2023/12/02 00:32:43;;;;;;;20.27;7.47;;;;;;;;;;5028695;28;20021;-60
2023/12/02 00:35:08;;;;;;;17.65;7.28;;;;;;;;;;5040698;28;20040;-60
2023/12/02 00:37:33;;;;;;;19.67;7.80;;;;;;;;;;5033469;28;20021;-60
2023/12/02 00:39:58;;;;;;;16.80;7.10;;;;;;;;;;5031548;28;20029;-60
2023/12/02 00:42:23;;;;;;;17.55;7.05;;;;;;;;;;5032731;28;20021;-61
2023/12/02 00:44:49;;;;;;;16.85;6.85;;;;;;;;;;5028631;28;20033;-61
2023/12/02 00:47:14;;;;;;;17.33;6.68;;;;;;;;;;5024208;28;20033;-61
2023/12/02 00:49:39;;;;;;;16.88;6.53;;;;;;;;;;5029705;28;20061;-60
2023/12/02 00:52:04;;;;;;;17.47;6.83;;;;;;;;;;5023590;28;20022;-61
2023/12/02 00:54:33;;;;;;;18.63;7.10;;;;;;;;;;5027257;28;20300;-61
2023/12/02 00:56:58;;;;;;;17.20;6.90;;;;;;;;;;5030131;28;20465;-61
2023/12/02 00:59:24;;;;;;;19.58;7.38;;;;;;;;;;5023121;28;20029;-60
2023/12/02 01:01:49;;;;;;;18.33;8.37;;;;;;;;;;5027656;28;20408;-61
2023/12/02 01:04:14;;;;;;;15.27;6.55;;;;;;;;;;5030113;28;20525;-60
2023/12/02 01:06:39;;;;;;;19.80;7.97;;;;;;;;;;5022436;28;20045;-60
2023/12/02 01:09:05;;;;;;;18.33;7.50;;;;;;;;;;5018610;28;20104;-60
2023/12/02 01:11:30;;;;;;;17.65;6.85;;;;;;;;;;5021772;28;20026;-60
2023/12/02 01:13:56;;;;;;;16.83;7.13;;;;;;;;;;5020815;28;20096;-60
2023/12/02 01:16:21;;;;;;;21.00;6.82;;;;;;;;;;5023608;28;20034;-60
2023/12/02 01:18:47;;;;;;;14.67;6.13;;;;;;;;;;5029336;28;20045;-61
2023/12/02 01:21:12;;;;;;;17.35;6.95;;;;;;;;;;5018781;28;20026;-60
2023/12/02 01:23:37;;;;;;;17.92;7.05;;;;;;;;;;5028714;28;20032;-60
2023/12/02 01:26:02;;;;;;;13.93;5.87;;;;;;;;;;5022347;28;20083;-60
2023/12/02 01:28:27;;;;;;;16.03;6.13;;;;;;;;;;5023731;28;20022;-60
2023/12/02 01:30:52;;;;;;;17.60;7.00;;;;;;;;;;5019173;28;20040;-61
2023/12/02 01:33:17;;;;;;;14.52;6.45;;;;;;;;;;5028712;28;20029;-62
2023/12/02 01:35:43;;;;;;;16.60;5.50;;;;;;;;;;5022602;28;20074;-60
2023/12/02 01:38:08;;;;;;;16.27;6.10;;;;;;;;;;5021934;28;20079;-60
2023/12/02 01:40:33;;;;;;;16.80;6.65;;;;;;;;;;5019035;28;20101;-60
2023/12/02 01:42:58;;;;;;;17.48;6.45;;;;;;;;;;5026703;28;20021;-60
2023/12/02 01:45:23;;;;;;;15.53;6.80;;;;;;;;;;5025848;28;20021;-60
2023/12/02 01:47:49;;;;;;;18.63;7.05;;;;;;;;;;5030030;28;20025;-60
2023/12/02 01:50:17;;;;;;;16.65;6.82;;;;;;;;;;5019222;28;20040;-60
2023/12/02 01:52:42;;;;;;;19.92;7.25;;;;;;;;;;5018320;28;20472;-60
2023/12/02 01:55:08;;;;;;;16.30;6.63;;;;;;;;;;5022027;28;20029;-60
2023/12/02 01:57:33;;;;;;;23.10;7.43;;;;;;;;;;5022069;28;20071;-60
2023/12/02 01:59:58;;;;;;;14.97;6.30;;;;;;;;;;5022877;28;20045;-61
2023/12/02 02:02:25;;;;;;;16.52;6.65;;;;;;;;;;5020870;28;20460;-61
2023/12/02 02:04:50;;;;;;;15.02;5.93;;;;;;;;;;5017835;28;20113;-60
2023/12/02 02:07:16;;;;;;;17.33;6.53;;;;;;;;;;5017587;28;20097;-60
2023/12/02 02:09:46;;;;;;;18.55;7.35;;;;;;;;;;5028653;28;20029;-60
2023/12/02 02:12:12;;;;;;;17.05;6.68;;;;;;;;;;5022034;28;20037;-61
2023/12/02 02:14:37;;;;;;;15.23;6.60;;;;;;;;;;5026886;28;20022;-60
2023/12/02 02:17:02;;;;;;;14.68;5.95;;;;;;;;;;5021821;28;20029;-60
2023/12/02 02:19:27;;;;;;;18.10;6.67;;;;;;;;;;5026582;28;20026;-60
2023/12/02 02:21:53;;;;;;;15.23;6.13;;;;;;;;;;5023279;28;20048;-59
2023/12/02 02:24:18;;;;;;;18.17;7.35;;;;;;;;;;5026677;28;20029;-60
2023/12/02 02:26:44;;;;;;;17.92;6.80;;;;;;;;;;5019287;28;20029;-60
2023/12/02 02:29:09;;;;;;;16.23;6.35;;;;;;;;;;5026391;28;20112;-60
2023/12/02 02:31:34;;;;;;;17.60;6.50;;;;;;;;;;5027947;28;20485;-60
2023/12/02 02:33:59;;;;;;;16.75;6.22;;;;;;;;;;5014173;28;20022;-60
2023/12/02 02:36:24;;;;;;;17.80;7.37;;;;;;;;;;5016427;28;20485;-60
2023/12/02 02:38:50;;;;;;;15.00;7.00;;;;;;;;;;5022316;28;20035;-61
2023/12/02 02:41:15;;;;;;;16.77;6.70;;;;;;;;;;5026863;28;20065;-61
2023/12/02 02:43:40;;;;;;;16.13;6.23;;;;;;;;;;5027196;28;20393;-60
2023/12/02 02:46:05;;;;;;;19.07;8.13;;;;;;;;;;5026656;28;20053;-60
2023/12/02 02:48:30;;;;;;;16.65;6.50;;;;;;;;;;5021584;28;20060;-60
2023/12/02 02:50:56;;;;;;;15.17;6.50;;;;;;;;;;5026878;28;20099;-60
2023/12/02 02:53:21;;;;;;;15.45;6.43;;;;;;;;;;5014281;28;20505;-60
2023/12/02 02:55:46;;;;;;;17.13;7.05;;;;;;;;;;5023718;28;20041;-60
2023/12/02 02:58:11;;;;;;;16.47;7.20;;;;;;;;;;5021221;28;20057;-60
2023/12/02 03:00:36;;;;;;;17.38;6.72;;;;;;;;;;5031239;28;20025;-61
2023/12/02 03:03:02;;;;;;;17.13;6.93;;;;;;;;;;5026976;28;20108;-60
2023/12/02 03:05:27;;;;;;;15.68;6.43;;;;;;;;;;5031595;28;20017;-60
2023/12/02 03:07:52;;;;;;;16.92;6.22;;;;;;;;;;5030575;28;20092;-60
2023/12/02 03:10:17;;;;;;;15.40;6.80;;;;;;;;;;5025274;28;20033;-60
2023/12/02 03:12:42;;;;;;;19.02;6.25;;;;;;;;;;5030000;28;20092;-60
2023/12/02 03:15:08;;;;;;;17.77;7.40;;;;;;;;;;5031053;28;20033;-60
2023/12/02 03:17:33;;;;;;;17.25;6.72;;;;;;;;;;5028053;28;20489;-60
2023/12/02 03:19:58;;;;;;;19.13;7.10;;;;;;;;;;5030618;28;20116;-60
2023/12/02 03:22:23;;;;;;;18.13;7.50;;;;;;;;;;5026807;28;20083;-60
2023/12/02 03:24:48;;;;;;;18.83;7.67;;;;;;;;;;5031584;28;20053;-60
2023/12/02 03:27:13;;;;;;;17.60;7.50;;;;;;;;;;5024403;28;20519;-60
2023/12/02 03:29:39;;;;;;;18.45;7.53;;;;;;;;;;5031189;28;21042;-60
2023/12/02 03:32:04;;;;;;;20.15;7.95;;;;;;;;;;5025543;28;20025;-59
2023/12/02 03:34:29;;;;;;;19.25;8.32;;;;;;;;;;5024995;28;20107;-60
2023/12/02 03:36:54;;;;;;;19.13;7.85;;;;;;;;;;5024197;28;20464;-59
2023/12/02 03:39:20;;;;;;;19.15;7.53;;;;;;;;;;5030245;28;20057;-60
2023/12/02 03:41:45;;;;;;;16.97;7.40;;;;;;;;;;5027843;28;20061;-59
2023/12/02 03:44:10;;;;;;;18.45;7.30;;;;;;;;;;5030704;28;20104;-60
2023/12/02 03:46:36;;;;;;;20.03;8.00;;;;;;;;;;5027134;28;20022;-60
2023/12/02 03:49:02;;;;;;;20.45;8.23;;;;;;;;;;5029827;28;20080;-60
2023/12/02 03:51:27;;;;;;;20.63;7.55;;;;;;;;;;5021827;28;20528;-60
2023/12/02 03:53:52;;;;;;;18.70;7.97;;;;;;;;;;5028902;28;20048;-60
2023/12/02 03:56:18;;;;;;;20.27;8.13;;;;;;;;;;5021852;28;20463;-60
2023/12/02 03:58:43;;;;;;;20.30;8.05;;;;;;;;;;5028309;28;20032;-60
2023/12/02 04:01:09;;;;;;;18.27;7.63;;;;;;;;;;5024878;28;20033;-61
2023/12/02 04:03:34;;;;;;;19.48;8.30;;;;;;;;;;5023039;28;20025;-61
2023/12/02 04:05:59;;;;;;;18.95;8.10;;;;;;;;;;5022225;28;20498;-61
2023/12/02 04:08:25;;;;;;;21.30;8.70;;;;;;;;;;5027521;28;20513;-61
2023/12/02 04:10:50;;;;;;;23.10;9.18;;;;;;;;;;5027388;28;20037;-59
2023/12/02 04:13:15;;;;;;;20.10;8.73;;;;;;;;;;5028384;28;20030;-61
2023/12/02 04:15:40;;;;;;;21.37;9.40;;;;;;;;;;5028529;28;20169;-61
2023/12/02 04:18:06;;;;;;;25.95;10.18;;;;;;;;;;5029918;28;20119;-60
2023/12/02 04:20:32;;;;;;;24.65;10.30;;;;;;;;;;5030107;28;20021;-61
2023/12/02 04:22:57;;;;;;;25.95;10.10;;;;;;;;;;5029989;28;20063;-61
2023/12/02 04:25:23;;;;;;;23.95;9.60;;;;;;;;;;5019597;28;20485;-61
2023/12/02 04:27:48;;;;;;;25.45;10.07;;;;;;;;;;5032519;28;20025;-61
2023/12/02 04:30:13;;;;;;;20.98;9.30;;;;;;;;;;5029520;28;20033;-60
2023/12/02 04:32:39;;;;;;;22.77;9.50;;;;;;;;;;5026599;28;20029;-59
2023/12/02 04:35:05;;;;;;;23.00;9.40;;;;;;;;;;5024617;28;20051;-60
2023/12/02 04:37:30;;;;;;;25.50;10.20;;;;;;;;;;5031931;28;20029;-61
2023/12/02 04:39:56;;;;;;;21.48;9.57;;;;;;;;;;5029193;28;20432;-61
2023/12/02 04:42:21;;;;;;;23.90;9.65;;;;;;;;;;5028183;28;20060;-60
2023/12/02 04:44:46;;;;;;;21.50;8.90;;;;;;;;;;5022611;28;20079;-61
2023/12/02 04:47:11;;;;;;;23.48;8.65;;;;;;;;;;5030930;28;20025;-60
2023/12/02 04:49:36;;;;;;;24.53;9.13;;;;;;;;;;5029285;28;20405;-59
2023/12/02 04:52:01;;;;;;;21.85;8.40;;;;;;;;;;5024339;28;20025;-59
2023/12/02 04:54:26;;;;;;;22.52;8.73;;;;;;;;;;5021331;28;20044;-60
2023/12/02 04:56:52;;;;;;;21.98;8.77;;;;;;;;;;5031627;28;20056;-61
2023/12/02 04:59:17;;;;;;;23.77;8.48;;;;;;;;;;5031196;28;20026;-61
2023/12/02 05:01:43;;;;;;;20.02;7.97;;;;;;;;;;5026885;28;20029;-61
2023/12/02 05:04:08;;;;;;;21.58;8.35;;;;;;;;;;5030236;28;20445;-61
2023/12/02 05:06:33;;;;;;;21.85;8.48;;;;;;;;;;5029240;28;20056;-61
2023/12/02 05:08:58;;;;;;;22.33;7.87;;;;;;;;;;5032573;28;20075;-60
2023/12/02 05:11:24;;;;;;;18.40;7.53;;;;;;;;;;5034416;28;20448;-61
2023/12/02 05:13:50;;;;;;;21.25;8.43;;;;;;;;;;5032523;28;20342;-59
2023/12/02 05:16:15;;;;;;;20.92;8.00;;;;;;;;;;5027263;28;20494;-61
2023/12/02 05:18:41;;;;;;;17.48;8.23;;;;;;;;;;5027056;28;20129;-61
2023/12/02 05:21:07;;;;;;;20.52;7.80;;;;;;;;;;5028112;28;20025;-61
2023/12/02 05:23:32;;;;;;;20.17;7.65;;;;;;;;;;5027704;28;20029;-62
2023/12/02 05:25:57;;;;;;;16.70;6.73;;;;;;;;;;5024143;28;20513;-60
2023/12/02 05:28:22;;;;;;;16.45;7.03;;;;;;;;;;5026520;28;20112;-60
2023/12/02 05:30:47;;;;;;;16.17;6.97;;;;;;;;;;5021296;28;20080;-60
2023/12/02 05:33:13;;;;;;;15.40;7.18;;;;;;;;;;5027012;28;20032;-60
2023/12/02 05:35:38;;;;;;;20.23;7.50;;;;;;;;;;5028819;28;20049;-60
2023/12/02 05:38:03;;;;;;;22.60;9.27;;;;;;;;;;5028220;28;20042;-60
2023/12/02 05:40:28;;;;;;;22.55;9.60;;;;;;;;;;5029708;28;20021;-60
2023/12/02 05:42:53;;;;;;;27.52;10.40;;;;;;;;;;5026580;28;20168;-60
2023/12/02 05:45:18;;;;;;;23.02;9.65;;;;;;;;;;5028344;28;20042;-60
2023/12/02 05:47:43;;;;;;;23.75;9.70;;;;;;;;;;5029355;28;20017;-60
2023/12/02 05:50:09;;;;;;;25.60;9.93;;;;;;;;;;5027229;28;20041;-61
2023/12/02 05:52:34;;;;;;;26.70;10.02;;;;;;;;;;5028378;28;20095;-61
2023/12/02 05:54:59;;;;;;;24.03;9.37;;;;;;;;;;5021843;28;20022;-61
2023/12/02 05:57:24;;;;;;;24.38;10.02;;;;;;;;;;5026931;28;20537;-61
2023/12/02 05:59:50;;;;;;;27.80;10.13;;;;;;;;;;5028347;28;20781;-60
2023/12/02 06:02:15;;;;;;;24.15;10.23;;;;;;;;;;5025271;28;20030;-60
2023/12/02 06:04:40;;;;;;;25.00;9.93;;;;;;;;;;5028489;28;20103;-60
2023/12/02 06:07:06;;;;;;;23.88;10.05;;;;;;;;;;5023683;28;20018;-60
2023/12/02 06:09:31;;;;;;;24.77;9.70;;;;;;;;;;5028649;28;20100;-61
2023/12/02 06:11:56;;;;;;;27.83;10.73;;;;;;;;;;5029049;28;20083;-60
2023/12/02 06:14:21;;;;;;;27.10;10.37;;;;;;;;;;5026107;28;20017;-60
2023/12/02 06:16:46;;;;;;;24.98;10.07;;;;;;;;;;5029109;28;20021;-60
2023/12/02 06:19:12;;;;;;;25.15;9.52;;;;;;;;;;5023618;28;20033;-60
2023/12/02 06:21:37;;;;;;;25.30;9.60;;;;;;;;;;5027131;28;20055;-60
2023/12/02 06:24:02;;;;;;;24.87;9.93;;;;;;;;;;5023557;28;20398;-60
2023/12/02 06:26:28;;;;;;;28.40;10.35;;;;;;;;;;5026615;28;20022;-60
2023/12/02 06:28:53;;;;;;;28.17;10.83;;;;;;;;;;5022186;28;20028;-61
2023/12/02 06:31:18;;;;;;;27.38;10.38;;;;;;;;;;5017710;28;20512;-60
2023/12/02 06:33:43;;;;;;;28.33;11.27;;;;;;;;;;5017464;28;20040;-60
2023/12/02 06:36:09;;;;;;;27.57;10.27;;;;;;;;;;5026255;28;20041;-60
2023/12/02 06:38:36;;;;;;;27.25;10.32;;;;;;;;;;5028803;28;20064;-60
2023/12/02 06:41:01;;;;;;;27.08;10.60;;;;;;;;;;5017438;28;20037;-59
2023/12/02 06:43:27;;;;;;;29.07;11.47;;;;;;;;;;5018212;28;20405;-60
2023/12/02 06:45:52;;;;;;;30.58;11.40;;;;;;;;;;5027552;28;20863;-59
2023/12/02 06:48:17;;;;;;;30.83;11.70;;;;;;;;;;5030175;28;20080;-59
2023/12/02 06:50:42;;;;;;;26.98;10.32;;;;;;;;;;5027387;28;20028;-60
2023/12/02 06:53:08;;;;;;;30.33;10.32;;;;;;;;;;5027629;28;20033;-61
2023/12/02 06:55:33;;;;;;;27.55;10.13;;;;;;;;;;5026808;28;20431;-60
2023/12/02 06:57:59;;;;;;;27.23;10.30;;;;;;;;;;5026396;28;20034;-58
2023/12/02 07:00:25;;;;;;;27.95;10.13;;;;;;;;;;5022669;28;20028;-60
2023/12/02 07:02:50;;;;;;;25.88;9.90;;;;;;;;;;5023826;28;20373;-60
2023/12/02 07:05:15;;;;;;;27.07;10.30;;;;;;;;;;5018196;28;20021;-60
2023/12/02 07:07:40;;;;;;;28.37;11.20;;;;;;;;;;5029622;28;20025;-59
2023/12/02 07:10:07;;;;;;;27.33;10.37;;;;;;;;;;5016569;28;20065;-60
2023/12/02 07:12:32;;;;;;;24.63;8.95;;;;;;;;;;5017116;28;20481;-60
2023/12/02 07:14:57;;;;;;;27.37;10.23;;;;;;;;;;5026372;28;20142;-59
2023/12/02 07:17:22;;;;;;;26.73;10.40;;;;;;;;;;5021671;28;20563;-59
2023/12/02 07:19:48;;;;;;;26.93;9.23;;;;;;;;;;5022982;28;20026;-60
2023/12/02 07:22:13;;;;;;;27.27;10.45;;;;;;;;;;5019702;28;20027;-59
2023/12/02 07:24:39;;;;;;;28.77;10.45;;;;;;;;;;5020335;28;20032;-59
2023/12/02 07:27:04;;;;;;;25.17;9.32;;;;;;;;;;5027440;28;20101;-59
2023/12/02 07:29:29;;;;;;;30.67;10.60;;;;;;;;;;5021449;28;20022;-60
2023/12/02 07:31:54;;;;;;;28.00;9.75;;;;;;;;;;5021576;28;20496;-60
2023/12/02 07:34:19;;;;;;;26.95;9.70;;;;;;;;;;5029064;28;20084;-60
2023/12/02 07:36:44;;;;;;;28.60;9.85;;;;;;;;;;5019572;28;20025;-60
2023/12/02 07:39:09;;;;;;;26.13;9.68;;;;;;;;;;5016974;28;20430;-60
2023/12/02 07:41:35;;;;;;;24.00;8.73;;;;;;;;;;5023413;28;20029;-60
2023/12/02 07:44:00;;;;;;;27.17;9.40;;;;;;;;;;5023898;28;20033;-60
2023/12/02 07:46:25;;;;;;;25.10;9.07;;;;;;;;;;5023090;28;20099;-60
2023/12/02 07:48:50;;;;;;;26.50;9.20;;;;;;;;;;5027775;28;20112;-60
2023/12/02 07:51:15;;;;;;;27.73;10.02;;;;;;;;;;5021168;28;20527;-60
2023/12/02 07:53:40;;;;;;;28.42;10.25;;;;;;;;;;5023670;28;20024;-60
2023/12/02 07:56:06;;;;;;;29.07;10.37;;;;;;;;;;5023730;28;20060;-60
2023/12/02 07:58:31;;;;;;;30.15;10.82;;;;;;;;;;5022194;28;20050;-60
2023/12/02 08:00:56;;;;;;;27.27;9.45;;;;;;;;;;5028186;28;20434;-60
2023/12/02 08:03:21;;;;;;;31.67;9.95;;;;;;;;;;5027958;28;20038;-59
2023/12/02 08:05:47;;;;;;;30.90;9.95;;;;;;;;;;5023525;28;20057;-60
2023/12/02 08:08:12;;;;;;;30.52;10.38;;;;;;;;;;5030501;28;20551;-59
2023/12/02 08:10:37;;;;;;;28.17;9.85;;;;;;;;;;5022129;28;20133;-59
2023/12/02 08:13:03;;;;;;;29.50;9.98;;;;;;;;;;5023696;28;20397;-59
2023/12/02 08:15:28;;;;;;;30.02;9.50;;;;;;;;;;5020042;28;20017;-60
2023/12/02 08:17:53;;;;;;;33.75;10.40;;;;;;;;;;5027385;28;20484;-60
2023/12/02 08:20:18;;;;;;;28.77;9.50;;;;;;;;;;5032785;28;20040;-60
2023/12/02 08:22:43;;;;;;;26.27;9.35;;;;;;;;;;5034266;28;20021;-60
2023/12/02 08:25:08;;;;;;;31.47;10.97;;;;;;;;;;5026083;28;20408;-60
2023/12/02 08:27:33;;;;;;;30.52;10.00;;;;;;;;;;5029087;28;20148;-60
2023/12/02 08:29:59;;;;;;;34.07;10.23;;;;;;;;;;5033431;28;20034;-59
2023/12/02 08:32:24;;;;;;;30.10;9.50;;;;;;;;;;5024037;28;20021;-59
2023/12/02 08:34:49;;;;;;;28.50;8.80;;;;;;;;;;5029954;28;20535;-59
2023/12/02 08:37:14;;;;;;;31.08;10.35;;;;;;;;;;5031218;28;20068;-59
2023/12/02 08:39:39;;;;;;;31.07;9.20;;;;;;;;;;5024508;28;20044;-59
2023/12/02 08:42:05;;;;;;;33.00;10.27;;;;;;;;;;5022824;28;20080;-59
2023/12/02 08:44:30;;;;;;;29.08;9.38;;;;;;;;;;5027538;28;20028;-59
2023/12/02 08:46:55;;;;;;;32.93;9.77;;;;;;;;;;5020852;28;20018;-59
2023/12/02 08:49:20;;;;;;;30.97;10.77;;;;;;;;;;5028938;28;20551;-60
2023/12/02 08:51:45;;;;;;;32.77;9.70;;;;;;;;;;5025298;28;20101;-60
2023/12/02 08:54:10;;;;;;;30.13;9.57;;;;;;;;;;5021165;28;20080;-59
2023/12/02 08:56:36;;;;;;;29.27;9.50;;;;;;;;;;5017176;28;20017;-59
2023/12/02 08:59:01;;;;;;;37.97;11.07;;;;;;;;;;5026092;28;20021;-59
2023/12/02 09:01:26;;;;;;;32.37;10.23;;;;;;;;;;5024127;28;20036;-58
2023/12/02 09:03:52;;;;;;;33.90;11.00;;;;;;;;;;5027139;28;20448;-60
2023/12/02 09:06:17;;;;;;;34.85;10.60;;;;;;;;;;5023824;28;20468;-59
2023/12/02 09:08:42;;;;;;;33.55;10.65;;;;;;;;;;5022750;28;20546;-59
2023/12/02 09:11:08;;;;;;;30.73;10.23;;;;;;;;;;5026443;28;20025;-59
2023/12/02 09:13:38;;;;;;;32.90;11.03;;;;;;;;;;5029079;28;20025;-59
2023/12/02 09:16:04;;;;;;;32.67;10.52;;;;;;;;;;5023036;28;20450;-60
2023/12/02 09:18:32;;;;;;;34.13;11.10;;;;;;;;;;5023940;28;20108;-60
2023/12/02 09:20:58;;;;;;;36.00;11.00;;;;;;;;;;5030619;28;20025;-59
2023/12/02 09:23:23;;;;;;;32.92;10.55;;;;;;;;;;5025892;28;20081;-60
2023/12/02 09:25:50;;;;;;;34.47;10.00;;;;;;;;;;5021538;28;20109;-59
2023/12/02 09:28:16;;;;;;;34.60;11.10;;;;;;;;;;5015905;28;20025;-59
2023/12/02 09:30:52;;;;;;;36.67;11.40;;;;;;;;;;5029058;28;20040;-59
2023/12/02 09:33:17;;;;;;;33.00;10.63;;;;;;;;;;5029177;28;20025;-59
2023/12/02 09:35:42;;;;;;;35.17;10.82;;;;;;;;;;5023200;28;20021;-58
2023/12/02 09:38:08;;;;;;;35.13;11.10;;;;;;;;;;5029451;28;20029;-59
2023/12/02 09:40:47;;;;;;;36.10;11.27;;;;;;;;;;5022090;28;20116;-58
2023/12/02 09:43:31;;;;;;;33.25;11.73;;;;;;;;;;5019876;28;20025;-59
2023/12/02 09:46:02;;;;;;;35.95;10.80;;;;;;;;;;5018737;28;20053;-59
2023/12/02 09:48:29;;;;;;;35.42;10.90;;;;;;;;;;5020718;28;20104;-59
2023/12/02 09:50:54;;;;;;;33.05;10.32;;;;;;;;;;5026255;28;20730;-58
2023/12/02 09:53:27;;;;;;;32.10;10.98;;;;;;;;;;5023489;28;20028;-60
2023/12/02 09:55:57;;;;;;;32.83;10.82;;;;;;;;;;5022901;28;20029;-58
2023/12/02 09:58:24;;;;;;;37.67;10.55;;;;;;;;;;5021757;28;20049;-59
2023/12/02 10:00:52;;;;;;;32.17;10.82;;;;;;;;;;5021368;28;20026;-59
2023/12/02 10:03:24;;;;;;;31.95;10.43;;;;;;;;;;5027558;28;20071;-59
2023/12/02 10:05:56;;;;;;;34.28;10.98;;;;;;;;;;5028194;28;20073;-59
2023/12/02 10:08:26;;;;;;;34.33;10.07;;;;;;;;;;5032805;28;20513;-60
2023/12/02 10:11:04;;;;;;;31.98;10.52;;;;;;;;;;5025787;28;20025;-59
2023/12/02 10:13:49;;;;;;;29.40;9.95;;;;;;;;;;5022933;28;20125;-60
2023/12/02 10:16:15;;;;;;;32.95;10.48;;;;;;;;;;5022789;28;20044;-61
2023/12/02 10:18:46;;;;;;;31.17;10.52;;;;;;;;;;5030838;28;20089;-59
2023/12/02 10:21:13;;;;;;;30.23;10.20;;;;;;;;;;5021243;28;20030;-60
2023/12/02 10:24:00;;;;;;;30.58;10.63;;;;;;;;;;5018576;28;20093;-59
2023/12/02 10:26:27;;;;;;;29.23;10.35;;;;;;;;;;5022927;28;20048;-59
2023/12/02 10:29:15;;;;;;;30.38;10.43;;;;;;;;;;5019480;28;20041;-59
2023/12/02 10:32:01;;;;;;;28.25;10.23;;;;;;;;;;5021937;28;20037;-60
2023/12/02 10:34:46;;;;;;;33.58;10.43;;;;;;;;;;5011364;28;20045;-59
2023/12/02 10:37:13;;;;;;;27.90;9.70;;;;;;;;;;5005229;28;20048;-60
2023/12/02 10:39:43;;;;;;;29.15;9.77;;;;;;;;;;5018560;28;20056;-59
2023/12/02 10:42:23;;;;;;;29.55;10.55;;;;;;;;;;5020281;28;20112;-58
2023/12/02 10:44:55;;;;;;;33.63;9.98;;;;;;;;;;5020570;28;20071;-58
2023/12/02 10:47:20;;;;;;;34.42;10.70;;;;;;;;;;5026271;28;20101;-58
2023/12/02 10:49:47;;;;;;;31.77;9.55;;;;;;;;;;5026438;28;20132;-59
2023/12/02 10:52:13;;;;;;;28.95;10.18;;;;;;;;;;5020007;28;20075;-59
2023/12/02 10:54:41;;;;;;;29.63;10.27;;;;;;;;;;5020253;28;20072;-59
2023/12/02 10:57:07;;;;;;;30.33;9.73;;;;;;;;;;5026391;28;20042;-58
2023/12/02 10:59:40;;;;;;;28.38;9.80;;;;;;;;;;5027946;28;20634;-64
2023/12/02 11:02:22;;;;;;;25.60;9.60;;;;;;;;;;5021512;28;20113;-59
2023/12/02 11:04:52;;;;;;;31.75;11.05;;;;;;;;;;5030425;28;20073;-60
2023/12/02 11:07:19;;;;;;;26.65;10.30;;;;;;;;;;5020765;28;20013;-60
2023/12/02 11:09:54;;;;;;;27.83;9.63;;;;;;;;;;5011886;28;20453;-60
2023/12/02 11:12:29;;;;;;;27.08;9.25;;;;;;;;;;5017431;28;20037;-60
2023/12/02 11:15:00;;;;;;;28.27;9.00;;;;;;;;;;5027945;28;20367;-61
2023/12/02 11:17:32;;;;;;;29.25;10.13;;;;;;;;;;5027144;28;20056;-60
2023/12/02 11:20:08;;;;;;;25.00;9.10;;;;;;;;;;5024283;28;20376;-59
2023/12/02 11:22:36;;;;;;;27.08;10.15;;;;;;;;;;5030652;28;20071;-59
2023/12/02 11:25:22;;;;;;;24.52;8.30;;;;;;;;;;5025230;28;20037;-59
2023/12/02 11:28:07;;;;;;;26.13;9.20;;;;;;;;;;5022722;28;20048;-60
2023/12/02 11:30:51;;;;;;;21.88;8.73;;;;;;;;;;5013067;28;20041;-63
2023/12/02 11:33:35;;;;;;;24.17;8.15;;;;;;;;;;5025581;28;20021;-59
2023/12/02 11:36:12;;;;;;;26.35;8.80;;;;;;;;;;5029092;28;20118;-59
2023/12/02 11:38:40;;;;;;;24.08;8.70;;;;;;;;;;5023199;28;20051;-57
2023/12/02 11:41:21;;;;;;;26.13;9.40;;;;;;;;;;5022267;28;20024;-60
2023/12/02 11:43:51;;;;;;;24.58;8.15;;;;;;;;;;5028852;28;20091;-60
2023/12/02 11:46:20;;;;;;;26.15;9.15;;;;;;;;;;5031577;28;20482;-59
2023/12/02 11:49:04;;;;;;;24.65;9.02;;;;;;;;;;5025553;28;20129;-58
2023/12/02 11:51:35;;;;;;;25.80;8.93;;;;;;;;;;5026031;28;20014;-59
2023/12/02 11:54:01;;;;;;;24.95;9.05;;;;;;;;;;5021084;28;20084;-60
2023/12/02 11:56:26;;;;;;;24.67;9.07;;;;;;;;;;5030029;28;20029;-59
2023/12/02 11:58:55;;;;;;;25.33;8.40;;;;;;;;;;5032707;28;20064;-59
2023/12/02 12:01:39;;;;;;;26.25;9.65;;;;;;;;;;5018877;28;20485;-61
2023/12/02 12:04:23;;;;;;;22.17;7.70;;;;;;;;;;5019366;28;20025;-59
2023/12/02 12:07:18;;;;;;;25.80;9.63;;;;;;;;;;5029178;28;20401;-59
2023/12/02 12:10:03;;;;;;;26.30;8.82;;;;;;;;;;5022991;28;20164;-59
2023/12/02 12:12:28;;;;;;;25.85;9.50;;;;;;;;;;5030274;28;20431;-59
2023/12/02 12:14:54;;;;;;;26.53;8.97;;;;;;;;;;5024611;28;20132;-60
2023/12/02 12:17:19;;;;;;;26.05;8.73;;;;;;;;;;5028525;28;20482;-59
2023/12/02 12:19:47;;;;;;;24.10;8.33;;;;;;;;;;5027012;28;20075;-59
2023/12/02 12:22:12;;;;;;;24.92;8.98;;;;;;;;;;5025981;28;20044;-59
2023/12/02 12:24:39;;;;;;;25.27;9.23;;;;;;;;;;5024404;28;20009;-58
2023/12/02 12:27:04;;;;;;;24.05;8.95;;;;;;;;;;5026344;28;20040;-59
2023/12/02 12:29:29;;;;;;;25.00;9.43;;;;;;;;;;5026722;28;20026;-60
2023/12/02 12:32:01;;;;;;;25.03;9.87;;;;;;;;;;5020588;28;20457;-59
2023/12/02 12:34:27;;;;;;;26.20;9.27;;;;;;;;;;5024595;28;20014;-59
2023/12/02 12:36:52;;;;;;;26.55;10.02;;;;;;;;;;5023487;28;20370;-60
2023/12/02 12:39:19;;;;;;;27.97;9.83;;;;;;;;;;5020100;28;20025;-60
2023/12/02 12:41:46;;;;;;;30.30;10.93;;;;;;;;;;5024440;28;20025;-58
2023/12/02 12:44:11;;;;;;;27.15;9.32;;;;;;;;;;5031766;28;20037;-59
2023/12/02 12:46:36;;;;;;;29.20;9.93;;;;;;;;;;5017713;28;20079;-59
2023/12/02 12:49:06;;;;;;;29.20;10.23;;;;;;;;;;5017168;28;22298;-58
2023/12/02 12:51:32;;;;;;;25.77;8.98;;;;;;;;;;5026623;28;20013;-60
2023/12/02 12:54:02;;;;;;;30.13;9.90;;;;;;;;;;5025592;28;20026;-60
2023/12/02 12:56:36;;;;;;;25.17;9.60;;;;;;;;;;5017435;28;20029;-60
2023/12/02 12:59:02;;;;;;;21.85;8.63;;;;;;;;;;5016346;28;20109;-58
2023/12/02 13:01:28;;;;;;;29.00;9.10;;;;;;;;;;5029213;28;20488;-60
2023/12/02 13:03:58;;;;;;;27.17;9.50;;;;;;;;;;5021055;28;20057;-58
2023/12/02 13:06:37;;;;;;;27.17;9.77;;;;;;;;;;5027614;28;20009;-59
2023/12/02 13:09:08;;;;;;;25.65;9.48;;;;;;;;;;5021215;28;20091;-58
2023/12/02 13:11:39;;;;;;;25.25;9.43;;;;;;;;;;5024111;28;20486;-60
2023/12/02 13:14:10;;;;;;;25.35;9.35;;;;;;;;;;5030320;28;20037;-58
2023/12/02 13:16:35;;;;;;;26.85;9.43;;;;;;;;;;5023208;28;20052;-58
2023/12/02 13:19:01;;;;;;;20.80;8.38;;;;;;;;;;5021173;28;20049;-59
2023/12/02 13:21:27;;;;;;;23.15;8.52;;;;;;;;;;5018299;28;20030;-58
2023/12/02 13:23:52;;;;;;;23.40;8.45;;;;;;;;;;5026458;28;20028;-58
2023/12/02 13:26:20;;;;;;;23.37;9.07;;;;;;;;;;5024428;28;20501;-59
2023/12/02 13:28:45;;;;;;;22.73;8.40;;;;;;;;;;5028805;28;20479;-58
2023/12/02 13:31:12;;;;;;;24.02;9.15;;;;;;;;;;5028694;28;20022;-59
2023/12/02 13:33:44;;;;;;;21.95;7.97;;;;;;;;;;5023893;28;20038;-59
2023/12/02 13:36:16;;;;;;;25.13;8.43;;;;;;;;;;5029535;28;20147;-59
2023/12/02 13:38:47;;;;;;;24.73;9.13;;;;;;;;;;5023741;28;20021;-59
2023/12/02 13:41:17;;;;;;;24.35;9.10;;;;;;;;;;5024944;28;20041;-59
2023/12/02 13:43:51;;;;;;;20.95;7.90;;;;;;;;;;5024406;28;20030;-59
2023/12/02 13:46:16;;;;;;;21.98;8.07;;;;;;;;;;5020514;28;20041;-59
2023/12/02 13:48:53;;;;;;;21.02;8.40;;;;;;;;;;5025342;28;20628;-59
2023/12/02 13:51:29;;;;;;;21.65;7.68;;;;;;;;;;5019083;28;20088;-58
2023/12/02 13:54:05;;;;;;;20.92;8.02;;;;;;;;;;5015481;28;20384;-60
2023/12/02 13:56:46;;;;;;;19.30;7.10;;;;;;;;;;5022233;28;20022;-60
2023/12/02 13:59:30;;;;;;;17.45;7.32;;;;;;;;;;5016350;28;20029;-59
2023/12/02 14:02:15;;;;;;;18.98;7.13;;;;;;;;;;5021775;28;20087;-59
2023/12/02 14:04:48;;;;;;;21.23;6.72;;;;;;;;;;5024833;28;20025;-59
2023/12/02 14:07:20;;;;;;;18.40;6.70;;;;;;;;;;5020487;28;20029;-59
2023/12/02 14:09:46;;;;;;;16.60;6.13;;;;;;;;;;5019128;28;20486;-59
2023/12/02 14:12:15;;;;;;;15.32;5.60;;;;;;;;;;5019620;28;20124;-59
2023/12/02 14:14:40;;;;;;;17.67;6.38;;;;;;;;;;5015346;28;20021;-59
2023/12/02 14:17:17;;;;;;;17.55;6.40;;;;;;;;;;5022242;28;20083;-58
2023/12/02 14:20:03;;;;;;;17.13;6.38;;;;;;;;;;5012270;28;20482;-59
2023/12/02 14:22:37;;;;;;;16.30;5.97;;;;;;;;;;5021351;28;20140;-58
2023/12/02 14:25:26;;;;;;;15.98;5.93;;;;;;;;;;5025539;28;20029;-59
2023/12/02 14:28:08;;;;;;;16.60;5.82;;;;;;;;;;5027830;28;20017;-59